createdAt,value
2022-08-20T00:00:29.055Z,0.00
2022-08-20T00:01:29.070Z,0.00
2022-08-20T00:02:29.036Z,0.00
2022-08-20T00:03:29.004Z,0.00
2022-08-20T00:04:28.993Z,0.00
2022-08-20T00:05:28.983Z,0.00
2022-08-20T00:06:28.996Z,0.00
2022-08-20T00:07:28.956Z,0.00
2022-08-20T00:08:28.953Z,0.00
2022-08-20T00:09:29.935Z,0.00
2022-08-20T00:10:28.915Z,0.00
2022-08-20T00:11:29.058Z,0.00
2022-08-20T00:12:28.888Z,0.00
2022-08-20T00:13:28.874Z,0.00
2022-08-20T00:14:28.875Z,0.00
2022-08-20T00:15:28.846Z,0.00
2022-08-20T00:16:28.859Z,0.00
2022-08-20T00:17:28.823Z,0.00
2022-08-20T00:18:28.817Z,0.00
2022-08-20T00:19:28.801Z,0.00
2022-08-20T00:20:28.787Z,0.00
2022-08-20T00:21:28.790Z,0.00
2022-08-20T00:22:28.765Z,0.00
2022-08-20T00:23:28.744Z,0.00
2022-08-20T00:24:28.739Z,0.00
2022-08-20T00:25:28.731Z,0.00
2022-08-20T00:26:28.723Z,0.00
2022-08-20T00:27:28.684Z,0.00
2022-08-20T00:28:28.700Z,0.00
2022-08-20T00:29:28.682Z,0.00
2022-08-20T00:30:28.653Z,0.00
2022-08-20T00:31:28.646Z,0.00
2022-08-20T00:32:28.630Z,0.00
2022-08-20T00:33:28.617Z,0.00
2022-08-20T00:34:28.596Z,0.00
2022-08-20T00:35:28.587Z,0.00
2022-08-20T00:36:32.261Z,0.00
2022-08-20T00:37:28.556Z,0.00
2022-08-20T00:38:28.547Z,0.00
2022-08-20T00:39:28.527Z,0.00
2022-08-20T00:40:28.531Z,0.00
2022-08-20T00:41:28.516Z,0.00
2022-08-20T00:42:28.518Z,0.00
2022-08-20T00:43:28.481Z,0.00
2022-08-20T00:44:28.480Z,0.00
2022-08-20T00:45:28.458Z,0.00
2022-08-20T00:46:31.607Z,0.00
2022-08-20T00:47:28.448Z,0.00
2022-08-20T00:48:28.407Z,0.00
2022-08-20T00:49:28.398Z,0.00
2022-08-20T00:50:28.389Z,0.00
2022-08-20T00:51:30.006Z,0.00
2022-08-20T00:52:28.373Z,0.00
2022-08-20T00:53:28.336Z,0.00
2022-08-20T00:54:28.327Z,0.00
2022-08-20T00:55:31.536Z,0.00
2022-08-20T00:56:28.326Z,0.00
2022-08-20T00:57:28.287Z,0.00
2022-08-20T00:58:29.281Z,0.00
2022-08-20T00:59:28.265Z,0.00
2022-08-20T01:00:28.278Z,0.00
2022-08-20T01:01:28.260Z,0.00
2022-08-20T01:02:28.227Z,0.00
2022-08-20T01:03:28.206Z,0.00
2022-08-20T01:04:28.201Z,0.00
2022-08-20T01:05:29.680Z,0.00
2022-08-20T01:06:28.171Z,0.00
2022-08-20T01:07:28.164Z,0.00
2022-08-20T01:08:28.146Z,0.00
2022-08-20T01:09:50.110Z,0.00
2022-08-20T01:10:29.138Z,0.00
2022-08-20T01:11:28.100Z,0.00
2022-08-20T01:12:29.108Z,0.00
2022-08-20T01:13:28.081Z,0.00
2022-08-20T01:14:28.069Z,0.00
2022-08-20T01:15:31.206Z,0.00
2022-08-20T01:16:28.175Z,0.00
2022-08-20T01:17:28.019Z,0.00
2022-08-20T01:18:28.011Z,0.00
2022-08-20T01:19:29.678Z,0.00
2022-08-20T01:20:28.002Z,0.00
2022-08-20T01:21:27.965Z,0.00
2022-08-20T01:22:27.961Z,0.00
2022-08-20T01:23:27.941Z,0.00
2022-08-20T01:24:27.932Z,0.00
2022-08-20T01:25:27.928Z,0.00
2022-08-20T01:26:27.910Z,0.00
2022-08-20T01:27:27.894Z,0.00
2022-08-20T01:28:27.880Z,0.00
2022-08-20T01:29:27.858Z,0.00
2022-08-20T01:30:27.876Z,0.00
2022-08-20T01:31:27.829Z,0.00
2022-08-20T01:32:27.828Z,0.00
2022-08-20T01:33:27.809Z,0.00
2022-08-20T01:34:27.808Z,0.00
2022-08-20T01:35:27.801Z,0.00
2022-08-20T01:36:27.771Z,0.00
2022-08-20T01:37:28.772Z,0.00
2022-08-20T01:38:27.738Z,0.00
2022-08-20T01:39:27.729Z,0.00
2022-08-20T01:40:27.748Z,0.00
2022-08-20T01:41:28.852Z,0.00
2022-08-20T01:42:27.689Z,0.00
2022-08-20T01:43:27.675Z,0.00
2022-08-20T01:44:27.661Z,0.00
2022-08-20T01:45:27.809Z,0.00
2022-08-20T01:46:27.634Z,0.00
2022-08-20T01:47:27.619Z,0.00
2022-08-20T01:48:27.605Z,0.00
2022-08-20T01:49:27.591Z,0.00
2022-08-20T01:50:27.608Z,0.00
2022-08-20T01:51:27.581Z,0.00
2022-08-20T01:52:27.556Z,0.00
2022-08-20T01:53:27.568Z,0.00
2022-08-20T01:54:27.532Z,0.00
2022-08-20T01:55:27.540Z,0.00
2022-08-20T01:56:27.501Z,0.00
2022-08-20T01:57:27.488Z,0.00
2022-08-20T01:58:27.499Z,0.00
2022-08-20T01:59:27.488Z,0.00
2022-08-20T02:00:27.484Z,0.00
2022-08-20T02:01:27.522Z,0.00
2022-08-20T02:02:27.418Z,0.00
2022-08-20T02:03:27.420Z,0.00
2022-08-20T02:04:27.391Z,0.00
2022-08-20T02:05:30.693Z,0.00
2022-08-20T02:06:27.362Z,0.00
2022-08-20T02:07:27.385Z,0.00
2022-08-20T02:08:27.339Z,0.00
2022-08-20T02:09:27.348Z,0.00
2022-08-20T02:10:27.332Z,0.00
2022-08-20T02:11:27.319Z,0.00
2022-08-20T02:12:27.280Z,0.00
2022-08-20T02:13:27.279Z,0.00
2022-08-20T02:14:27.261Z,0.00
2022-08-20T02:15:37.121Z,0.00
2022-08-20T02:16:28.230Z,0.00
2022-08-20T02:17:27.221Z,0.00
2022-08-20T02:18:27.215Z,0.00
2022-08-20T02:19:27.200Z,0.00
2022-08-20T02:20:27.206Z,0.00
2022-08-20T02:21:27.170Z,0.00
2022-08-20T02:22:27.160Z,0.00
2022-08-20T02:23:27.140Z,0.00
2022-08-20T02:24:27.125Z,0.00
2022-08-20T02:25:27.149Z,0.00
2022-08-20T02:26:27.104Z,0.00
2022-08-20T02:27:27.090Z,0.00
2022-08-20T02:28:27.077Z,0.00
2022-08-20T02:29:27.064Z,0.00
2022-08-20T02:30:28.006Z,0.00
2022-08-20T02:31:27.892Z,0.00
2022-08-20T02:32:33.919Z,0.00
2022-08-20T02:33:28.023Z,0.00
2022-08-20T02:34:26.992Z,0.00
2022-08-20T02:35:27.017Z,0.00
2022-08-20T02:36:26.962Z,0.00
2022-08-20T02:37:26.952Z,0.00
2022-08-20T02:38:26.931Z,0.00
2022-08-20T02:39:26.931Z,0.00
2022-08-20T02:40:30.394Z,0.00
2022-08-20T02:41:26.902Z,0.00
2022-08-20T02:42:26.883Z,0.00
2022-08-20T02:43:26.871Z,0.00
2022-08-20T02:44:26.865Z,0.00
2022-08-20T02:45:26.867Z,0.00
2022-08-20T02:46:26.829Z,0.00
2022-08-20T02:47:26.820Z,0.00
2022-08-20T02:48:26.800Z,0.00
2022-08-20T02:49:26.800Z,0.00
2022-08-20T02:50:26.790Z,0.00
2022-08-20T02:51:28.651Z,0.00
2022-08-20T02:52:26.747Z,0.00
2022-08-20T02:53:26.756Z,0.00
2022-08-20T02:54:26.730Z,0.00
2022-08-20T02:55:27.767Z,0.00
2022-08-20T02:56:26.702Z,0.00
2022-08-20T02:57:26.682Z,0.00
2022-08-20T02:58:26.669Z,0.00
2022-08-20T02:59:26.664Z,0.00
2022-08-20T03:00:26.701Z,0.00
2022-08-20T03:01:26.671Z,0.00
2022-08-20T03:02:26.610Z,0.00
2022-08-20T03:03:26.602Z,0.00
2022-08-20T03:04:26.600Z,0.00
2022-08-20T03:05:26.592Z,0.00
2022-08-20T03:06:26.561Z,0.00
2022-08-20T03:07:26.551Z,0.00
2022-08-20T03:08:26.533Z,0.00
2022-08-20T03:09:26.531Z,0.00
2022-08-20T03:10:26.513Z,0.00
2022-08-20T03:11:26.501Z,0.00
2022-08-20T03:12:26.481Z,0.00
2022-08-20T03:13:26.486Z,0.00
2022-08-20T03:14:26.461Z,0.00
2022-08-20T03:15:26.464Z,0.00
2022-08-20T03:16:26.430Z,0.00
2022-08-20T03:17:26.428Z,0.00
2022-08-20T03:18:26.411Z,0.00
2022-08-20T03:19:26.394Z,0.00
2022-08-20T03:20:26.394Z,0.00
2022-08-20T03:21:26.370Z,0.00
2022-08-20T03:22:26.354Z,0.00
2022-08-20T03:23:26.355Z,0.00
2022-08-20T03:24:26.326Z,0.00
2022-08-20T03:25:26.328Z,0.00
2022-08-20T03:26:26.300Z,0.00
2022-08-20T03:27:26.294Z,0.00
2022-08-20T03:28:27.272Z,0.00
2022-08-20T03:29:26.271Z,0.00
2022-08-20T03:30:26.254Z,0.00
2022-08-20T03:31:26.248Z,0.00
2022-08-20T03:32:26.222Z,0.00
2022-08-20T03:33:26.219Z,0.00
2022-08-20T03:34:26.202Z,0.00
2022-08-20T03:35:26.195Z,0.00
2022-08-20T03:36:28.754Z,0.00
2022-08-20T03:37:26.164Z,0.00
2022-08-20T03:38:32.420Z,0.00
2022-08-20T03:39:27.127Z,0.00
2022-08-20T03:40:26.117Z,0.00
2022-08-20T03:41:26.121Z,0.00
2022-08-20T03:42:26.084Z,0.00
2022-08-20T03:43:26.080Z,0.00
2022-08-20T03:44:26.054Z,0.00
2022-08-20T03:45:26.080Z,0.00
2022-08-20T03:46:26.032Z,0.00
2022-08-20T03:47:26.020Z,0.00
2022-08-20T03:48:26.006Z,0.00
2022-08-20T03:49:25.993Z,0.00
2022-08-20T03:50:25.993Z,0.00
2022-08-20T03:51:25.964Z,0.00
2022-08-20T03:52:25.945Z,0.00
2022-08-20T03:53:25.945Z,0.00
2022-08-20T03:54:30.225Z,0.00
2022-08-20T03:55:26.926Z,0.00
2022-08-20T03:56:25.902Z,0.00
2022-08-20T03:57:25.883Z,0.00
2022-08-20T03:58:32.816Z,0.00
2022-08-20T03:59:26.854Z,0.00
2022-08-20T04:00:25.854Z,0.00
2022-08-20T04:01:45.208Z,0.00
2022-08-20T04:02:26.815Z,0.00
2022-08-20T04:03:25.805Z,0.00
2022-08-20T04:04:25.791Z,0.00
2022-08-20T04:05:28.452Z,0.00
2022-08-20T04:06:25.755Z,0.00
2022-08-20T04:07:25.854Z,0.00
2022-08-20T04:08:25.736Z,0.00
2022-08-20T04:09:25.734Z,0.00
2022-08-20T04:10:25.735Z,0.00
2022-08-20T04:11:25.706Z,0.00
2022-08-20T04:12:25.684Z,0.00
2022-08-20T04:13:25.675Z,0.00
2022-08-20T04:14:25.654Z,0.00
2022-08-20T04:15:25.674Z,0.00
2022-08-20T04:16:25.675Z,0.00
2022-08-20T04:17:25.620Z,0.00
2022-08-20T04:18:25.605Z,0.00
2022-08-20T04:19:25.597Z,0.00
2022-08-20T04:20:25.586Z,0.00
2022-08-20T04:21:25.567Z,0.00
2022-08-20T04:22:25.548Z,0.00
2022-08-20T04:23:25.538Z,0.00
2022-08-20T04:24:31.928Z,0.00
2022-08-20T04:25:26.766Z,0.00
2022-08-20T04:26:25.497Z,0.00
2022-08-20T04:27:25.507Z,0.00
2022-08-20T04:28:25.500Z,0.00
2022-08-20T04:29:25.467Z,0.00
2022-08-20T04:30:26.498Z,0.00
2022-08-20T04:31:25.698Z,0.00
2022-08-20T04:32:25.427Z,0.00
2022-08-20T04:33:33.536Z,0.00
2022-08-20T04:34:26.406Z,0.00
2022-08-20T04:35:25.678Z,0.00
2022-08-20T04:36:25.377Z,0.00
2022-08-20T04:37:25.386Z,0.00
2022-08-20T04:38:25.379Z,0.00
2022-08-20T04:39:26.393Z,0.00
2022-08-20T04:40:25.413Z,0.00
2022-08-20T04:41:25.327Z,0.00
2022-08-20T04:42:25.317Z,0.00
2022-08-20T04:43:25.347Z,5.62
2022-08-20T04:44:25.331Z,5.62
2022-08-20T04:45:25.269Z,5.62
2022-08-20T04:46:25.276Z,5.62
2022-08-20T04:47:34.387Z,5.62
2022-08-20T04:48:26.231Z,5.62
2022-08-20T04:49:25.261Z,5.62
2022-08-20T04:50:25.285Z,5.62
2022-08-20T04:51:25.228Z,5.62
2022-08-20T04:52:25.187Z,5.62
2022-08-20T04:53:25.988Z,5.62
2022-08-20T04:54:25.832Z,5.62
2022-08-20T04:55:25.249Z,5.62
2022-08-20T04:56:25.179Z,5.62
2022-08-20T04:57:25.171Z,5.62
2022-08-20T04:58:25.093Z,5.62
2022-08-20T04:59:25.232Z,5.62
2022-08-20T05:00:25.137Z,5.62
2022-08-20T05:01:25.099Z,5.62
2022-08-20T05:02:25.037Z,5.62
2022-08-20T05:03:25.144Z,5.62
2022-08-20T05:04:25.137Z,5.62
2022-08-20T05:05:24.999Z,11.25
2022-08-20T05:06:25.041Z,11.25
2022-08-20T05:07:25.057Z,11.25
2022-08-20T05:08:24.962Z,11.25
2022-08-20T05:09:25.594Z,11.25
2022-08-20T05:10:25.144Z,11.25
2022-08-20T05:11:33.635Z,11.25
2022-08-20T05:12:25.906Z,11.25
2022-08-20T05:13:27.382Z,11.25
2022-08-20T05:14:24.910Z,11.25
2022-08-20T05:15:24.864Z,11.25
2022-08-20T05:16:24.856Z,11.25
2022-08-20T05:17:24.941Z,11.25
2022-08-20T05:18:24.818Z,11.25
2022-08-20T05:19:24.795Z,11.25
2022-08-20T05:20:24.761Z,11.25
2022-08-20T05:21:24.761Z,11.25
2022-08-20T05:22:24.735Z,11.25
2022-08-20T05:23:25.731Z,11.25
2022-08-20T05:24:24.719Z,16.88
2022-08-20T05:25:24.709Z,16.88
2022-08-20T05:26:24.682Z,16.88
2022-08-20T05:27:25.133Z,16.88
2022-08-20T05:28:24.669Z,16.88
2022-08-20T05:29:24.672Z,16.88
2022-08-20T05:30:24.680Z,16.88
2022-08-20T05:31:32.182Z,16.88
2022-08-20T05:32:25.834Z,16.88
2022-08-20T05:33:24.638Z,16.88
2022-08-20T05:34:24.593Z,16.88
2022-08-20T05:35:24.592Z,16.88
2022-08-20T05:36:24.549Z,16.88
2022-08-20T05:37:24.541Z,16.88
2022-08-20T05:38:24.526Z,16.88
2022-08-20T05:39:24.531Z,16.88
2022-08-20T05:40:24.560Z,16.88
2022-08-20T05:41:28.392Z,16.88
2022-08-20T05:42:25.471Z,16.88
2022-08-20T05:43:24.462Z,16.88
2022-08-20T05:44:24.468Z,16.88
2022-08-20T05:45:24.442Z,16.88
2022-08-20T05:46:24.429Z,22.50
2022-08-20T05:47:24.412Z,22.50
2022-08-20T05:48:24.392Z,22.50
2022-08-20T05:49:24.407Z,22.50
2022-08-20T05:50:24.374Z,22.50
2022-08-20T05:51:24.363Z,22.50
2022-08-20T05:52:24.365Z,22.50
2022-08-20T05:53:24.331Z,22.50
2022-08-20T05:54:24.335Z,22.50
2022-08-20T05:55:24.327Z,22.50
2022-08-20T05:56:26.946Z,22.50
2022-08-20T05:57:24.282Z,22.50
2022-08-20T05:58:24.269Z,28.12
2022-08-20T05:59:24.355Z,28.12
2022-08-20T06:00:24.248Z,28.12
2022-08-20T06:01:24.272Z,28.12
2022-08-20T06:02:24.238Z,28.12
2022-08-20T06:03:24.204Z,28.12
2022-08-20T06:04:24.203Z,28.12
2022-08-20T06:05:24.175Z,33.75
2022-08-20T06:06:46.241Z,33.75
2022-08-20T06:07:25.180Z,33.75
2022-08-20T06:08:24.145Z,33.75
2022-08-20T06:09:31.844Z,33.75
2022-08-20T06:10:25.108Z,33.75
2022-08-20T06:11:24.085Z,33.75
2022-08-20T06:12:24.073Z,39.38
2022-08-20T06:13:24.074Z,39.38
2022-08-20T06:14:24.484Z,39.38
2022-08-20T06:15:24.048Z,39.38
2022-08-20T06:16:24.024Z,39.38
2022-08-20T06:17:25.020Z,39.38
2022-08-20T06:18:27.573Z,39.38
2022-08-20T06:19:26.053Z,39.38
2022-08-20T06:20:23.963Z,39.38
2022-08-20T06:21:23.962Z,39.38
2022-08-20T06:22:25.846Z,39.38
2022-08-20T06:23:23.934Z,39.38
2022-08-20T06:24:23.940Z,39.38
2022-08-20T06:25:23.903Z,39.38
2022-08-20T06:26:29.730Z,39.38
2022-08-20T06:27:24.896Z,39.38
2022-08-20T06:28:23.892Z,39.38
2022-08-20T06:29:23.846Z,39.38
2022-08-20T06:30:23.838Z,39.38
2022-08-20T06:31:23.832Z,39.38
2022-08-20T06:32:28.810Z,39.38
2022-08-20T06:33:24.810Z,39.38
2022-08-20T06:34:23.795Z,39.38
2022-08-20T06:35:23.764Z,39.38
2022-08-20T06:36:23.757Z,39.38
2022-08-20T06:37:28.174Z,39.38
2022-08-20T06:38:24.736Z,39.38
2022-08-20T06:39:23.716Z,39.38
2022-08-20T06:40:23.714Z,39.38
2022-08-20T06:41:23.686Z,39.38
2022-08-20T06:42:24.674Z,39.38
2022-08-20T06:43:23.703Z,39.38
2022-08-20T06:44:23.654Z,39.38
2022-08-20T06:45:23.676Z,39.38
2022-08-20T06:46:23.648Z,39.38
2022-08-20T06:47:23.625Z,39.38
2022-08-20T06:48:23.625Z,39.38
2022-08-20T06:49:23.581Z,39.38
2022-08-20T06:50:23.573Z,39.38
2022-08-20T06:51:23.564Z,45.00
2022-08-20T06:52:51.706Z,45.00
2022-08-20T06:53:24.669Z,45.00
2022-08-20T06:54:23.516Z,45.00
2022-08-20T06:55:24.510Z,45.00
2022-08-20T06:56:23.495Z,45.00
2022-08-20T06:57:23.488Z,45.00
2022-08-20T06:58:36.238Z,45.00
2022-08-20T06:59:24.453Z,45.00
2022-08-20T07:00:23.437Z,45.00
2022-08-20T07:01:23.473Z,45.00
2022-08-20T07:02:23.417Z,45.00
2022-08-20T07:03:24.431Z,45.00
2022-08-20T07:04:23.400Z,45.00
2022-08-20T07:05:23.368Z,45.00
2022-08-20T07:06:23.375Z,45.00
2022-08-20T07:07:23.338Z,45.00
2022-08-20T07:08:23.346Z,45.00
2022-08-20T07:09:23.315Z,45.00
2022-08-20T07:10:23.319Z,45.00
2022-08-20T07:11:27.694Z,45.00
2022-08-20T07:12:24.285Z,45.00
2022-08-20T07:13:23.286Z,45.00
2022-08-20T07:14:23.248Z,45.00
2022-08-20T07:15:23.636Z,39.38
2022-08-20T07:16:23.217Z,39.38
2022-08-20T07:17:24.233Z,39.38
2022-08-20T07:18:28.356Z,39.38
2022-08-20T07:19:24.177Z,39.38
2022-08-20T07:21:23.172Z,39.38
2022-08-20T07:22:23.320Z,39.38
2022-08-20T07:23:23.169Z,39.38
2022-08-20T07:24:23.108Z,39.38
2022-08-20T07:25:23.111Z,39.38
2022-08-20T07:26:23.100Z,39.38
2022-08-20T07:27:23.092Z,39.38
2022-08-20T07:28:23.070Z,39.38
2022-08-20T07:29:23.066Z,39.38
2022-08-20T07:30:23.039Z,39.38
2022-08-20T07:31:23.042Z,39.38
2022-08-20T07:32:23.009Z,39.38
2022-08-20T07:33:24.010Z,39.38
2022-08-20T07:34:22.998Z,39.38
2022-08-20T07:35:22.980Z,39.38
2022-08-20T07:36:22.970Z,39.38
2022-08-20T07:37:22.949Z,39.38
2022-08-20T07:38:22.950Z,39.38
2022-08-20T07:39:22.940Z,39.38
2022-08-20T07:40:26.028Z,39.38
2022-08-20T07:41:22.904Z,39.38
2022-08-20T07:42:22.879Z,39.38
2022-08-20T07:43:22.899Z,39.38
2022-08-20T07:44:22.849Z,39.38
2022-08-20T07:45:23.840Z,39.38
2022-08-20T07:46:22.846Z,39.38
2022-08-20T07:47:22.820Z,39.38
2022-08-20T07:48:28.008Z,39.38
2022-08-20T07:49:23.792Z,39.38
2022-08-20T07:50:22.788Z,39.38
2022-08-20T07:51:22.771Z,39.38
2022-08-20T07:52:22.754Z,39.38
2022-08-20T07:53:22.740Z,39.38
2022-08-20T07:54:22.737Z,39.38
2022-08-20T07:55:22.729Z,39.38
2022-08-20T07:56:22.692Z,39.38
2022-08-20T07:57:22.754Z,39.38
2022-08-20T07:58:22.679Z,39.38
2022-08-20T07:59:23.651Z,39.38
2022-08-20T08:00:22.695Z,45.00
2022-08-20T08:01:22.699Z,45.00
2022-08-20T08:02:22.620Z,45.00
2022-08-20T08:03:22.628Z,45.00
2022-08-20T08:04:23.709Z,45.00
2022-08-20T08:05:22.729Z,45.00
2022-08-20T08:06:30.018Z,45.00
2022-08-20T08:07:23.549Z,45.00
2022-08-20T08:08:22.564Z,45.00
2022-08-20T08:09:22.779Z,45.00
2022-08-20T08:10:22.506Z,45.00
2022-08-20T08:11:22.523Z,50.62
2022-08-20T08:12:22.482Z,50.62
2022-08-20T08:13:22.482Z,50.62
2022-08-20T08:14:22.451Z,50.62
2022-08-20T08:15:22.449Z,50.62
2022-08-20T08:16:22.743Z,56.25
2022-08-20T08:17:22.686Z,56.25
2022-08-20T08:18:22.417Z,56.25
2022-08-20T08:19:22.399Z,56.25
2022-08-20T08:20:22.370Z,56.25
2022-08-20T08:21:22.422Z,56.25
2022-08-20T08:22:22.349Z,61.88
2022-08-20T08:23:24.898Z,61.88
2022-08-20T08:24:27.826Z,61.88
2022-08-20T08:25:23.310Z,61.88
2022-08-20T08:26:22.291Z,61.88
2022-08-20T08:27:22.291Z,67.50
2022-08-20T08:28:22.291Z,67.50
2022-08-20T08:29:22.265Z,67.50
2022-08-20T08:30:22.243Z,67.50
2022-08-20T08:31:22.258Z,67.50
2022-08-20T08:32:22.228Z,67.50
2022-08-20T08:33:22.399Z,73.12
2022-08-20T08:34:22.201Z,73.12
2022-08-20T08:35:22.180Z,73.12
2022-08-20T08:36:22.437Z,73.12
2022-08-20T08:37:22.449Z,73.12
2022-08-20T08:38:22.162Z,78.75
2022-08-20T08:39:22.122Z,78.75
2022-08-20T08:40:22.660Z,78.75
2022-08-20T08:41:22.100Z,78.75
2022-08-20T08:42:22.090Z,84.38
2022-08-20T08:43:22.072Z,84.38
2022-08-20T08:44:22.084Z,84.38
2022-08-20T08:45:22.046Z,84.38
2022-08-20T08:46:22.032Z,84.38
2022-08-20T08:47:22.033Z,90.00
2022-08-20T08:48:22.001Z,90.00
2022-08-20T08:49:22.000Z,90.00
2022-08-20T08:50:38.510Z,90.00
2022-08-20T08:51:23.341Z,90.00
2022-08-20T08:52:22.071Z,90.00
2022-08-20T08:53:21.943Z,90.00
2022-08-20T08:54:22.131Z,90.00
2022-08-20T08:55:21.918Z,90.00
2022-08-20T08:56:21.891Z,90.00
2022-08-20T08:57:21.907Z,90.00
2022-08-20T08:58:21.871Z,90.00
2022-08-20T08:59:21.863Z,90.00
2022-08-20T09:00:21.849Z,90.00
2022-08-20T09:01:55.063Z,90.00
2022-08-20T09:02:22.892Z,90.00
2022-08-20T09:03:21.800Z,90.00
2022-08-20T09:04:21.953Z,90.00
2022-08-20T09:05:21.782Z,90.00
2022-08-20T09:06:21.760Z,95.62
2022-08-20T09:07:21.793Z,95.62
2022-08-20T09:08:21.738Z,95.62
2022-08-20T09:09:21.732Z,90.00
2022-08-20T09:10:23.266Z,90.00
2022-08-20T09:11:21.712Z,90.00
2022-08-20T09:12:21.691Z,90.00
2022-08-20T09:13:21.674Z,90.00
2022-08-20T09:14:21.667Z,90.00
2022-08-20T09:15:21.643Z,90.00
2022-08-20T09:16:21.632Z,90.00
2022-08-20T09:17:22.008Z,90.00
2022-08-20T09:18:21.610Z,90.00
2022-08-20T09:19:21.606Z,84.38
2022-08-20T09:20:26.972Z,84.38
2022-08-20T09:22:37.740Z,84.38
2022-08-20T09:23:37.711Z,84.38
2022-08-20T09:24:37.681Z,84.38
2022-08-20T09:25:37.672Z,84.38
2022-08-20T09:26:39.281Z,84.38
2022-08-20T09:27:38.048Z,84.38
2022-08-20T09:28:37.629Z,84.38
2022-08-20T09:29:37.664Z,84.38
2022-08-20T09:30:37.613Z,84.38
2022-08-20T09:31:38.224Z,78.75
2022-08-20T09:32:37.578Z,78.75
2022-08-20T09:33:37.589Z,78.75
2022-08-20T09:34:37.582Z,78.75
2022-08-20T09:35:37.552Z,78.75
2022-08-20T09:36:37.542Z,78.75
2022-08-20T09:37:38.003Z,73.12
2022-08-20T09:38:37.493Z,73.12
2022-08-20T09:39:37.558Z,73.12
2022-08-20T09:40:37.484Z,73.12
2022-08-20T09:41:37.493Z,73.12
2022-08-20T09:42:40.977Z,73.12
2022-08-20T09:43:37.477Z,73.12
2022-08-20T09:44:37.440Z,73.12
2022-08-20T09:45:37.421Z,73.12
2022-08-20T09:46:37.742Z,73.12
2022-08-20T09:47:37.383Z,73.12
2022-08-20T09:48:37.371Z,73.12
2022-08-20T09:49:37.404Z,73.12
2022-08-20T09:50:37.386Z,73.12
2022-08-20T09:51:38.460Z,73.12
2022-08-20T09:52:40.594Z,73.12
2022-08-20T09:53:37.318Z,73.12
2022-08-20T09:54:37.283Z,73.12
2022-08-20T09:55:37.818Z,73.12
2022-08-20T09:56:37.262Z,73.12
2022-08-20T09:57:37.242Z,73.12
2022-08-20T09:58:37.250Z,73.12
2022-08-20T09:59:37.392Z,73.12
2022-08-20T10:00:37.231Z,67.50
2022-08-20T10:01:37.228Z,67.50
2022-08-20T10:02:37.175Z,67.50
2022-08-20T10:03:37.173Z,67.50
2022-08-20T10:04:37.186Z,67.50
2022-08-20T10:05:37.141Z,67.50
2022-08-20T10:06:37.884Z,67.50
2022-08-20T10:07:37.112Z,67.50
2022-08-20T10:08:37.105Z,67.50
2022-08-20T10:09:37.098Z,67.50
2022-08-20T10:10:37.181Z,67.50
2022-08-20T10:11:37.072Z,67.50
2022-08-20T10:12:37.045Z,67.50
2022-08-20T10:13:37.048Z,67.50
2022-08-20T10:14:37.020Z,67.50
2022-08-20T10:15:37.012Z,67.50
2022-08-20T10:16:37.002Z,73.12
2022-08-20T10:17:36.989Z,73.12
2022-08-20T10:18:36.964Z,73.12
2022-08-20T10:19:36.968Z,73.12
2022-08-20T10:20:36.944Z,73.12
2022-08-20T10:21:39.013Z,73.12
2022-08-20T10:22:36.912Z,73.12
2022-08-20T10:23:36.899Z,73.12
2022-08-20T10:24:36.885Z,78.75
2022-08-20T10:25:36.883Z,78.75
2022-08-20T10:26:36.865Z,78.75
2022-08-20T10:27:36.866Z,78.75
2022-08-20T10:28:36.838Z,78.75
2022-08-20T10:29:36.823Z,78.75
2022-08-20T10:30:36.805Z,78.75
2022-08-20T10:31:36.804Z,78.75
2022-08-20T10:32:36.784Z,78.75
2022-08-20T10:33:36.775Z,78.75
2022-08-20T10:34:36.753Z,78.75
2022-08-20T10:35:36.895Z,78.75
2022-08-20T10:36:36.755Z,78.75
2022-08-20T10:37:36.722Z,78.75
2022-08-20T10:38:36.694Z,78.75
2022-08-20T10:39:36.711Z,78.75
2022-08-20T10:40:36.665Z,78.75
2022-08-20T10:41:39.068Z,78.75
2022-08-20T10:42:41.803Z,84.38
2022-08-20T10:43:37.692Z,84.38
2022-08-20T10:44:40.377Z,84.38
2022-08-20T10:45:36.607Z,84.38
2022-08-20T10:46:36.598Z,84.38
2022-08-20T10:47:36.584Z,84.38
2022-08-20T10:48:36.564Z,84.38
2022-08-20T10:49:36.557Z,84.38
2022-08-20T10:50:36.549Z,84.38
2022-08-20T10:51:36.546Z,84.38
2022-08-20T10:52:36.516Z,90.00
2022-08-20T10:53:36.495Z,84.38
2022-08-20T10:54:36.493Z,84.38
2022-08-20T10:55:36.477Z,84.38
2022-08-20T10:56:36.467Z,84.38
2022-08-20T10:57:36.446Z,90.00
2022-08-20T10:58:39.719Z,90.00
2022-08-20T10:59:36.423Z,90.00
2022-08-20T11:00:36.409Z,90.00
2022-08-20T11:01:36.980Z,95.62
2022-08-20T11:02:36.377Z,95.62
2022-08-20T11:03:36.367Z,95.62
2022-08-20T11:04:36.345Z,95.62
2022-08-20T11:05:36.336Z,101.25
2022-08-20T11:06:36.341Z,101.25
2022-08-20T11:07:49.871Z,101.25
2022-08-20T11:08:37.300Z,101.25
2022-08-20T11:09:36.283Z,101.25
2022-08-20T11:10:36.267Z,101.25
2022-08-20T11:11:36.285Z,101.25
2022-08-20T11:12:36.247Z,101.25
2022-08-20T11:13:36.240Z,101.25
2022-08-20T11:14:36.215Z,106.88
2022-08-20T11:15:36.205Z,106.88
2022-08-20T11:16:36.196Z,112.50
2022-08-20T11:17:37.275Z,118.12
2022-08-20T11:18:36.164Z,123.75
2022-08-20T11:19:36.252Z,123.75
2022-08-20T11:20:36.148Z,129.38
2022-08-20T11:21:36.166Z,129.38
2022-08-20T11:22:36.117Z,135.00
2022-08-20T11:23:36.227Z,135.00
2022-08-20T11:24:36.087Z,135.00
2022-08-20T11:25:36.076Z,135.00
2022-08-20T11:26:36.068Z,135.00
2022-08-20T11:27:36.046Z,129.38
2022-08-20T11:28:36.036Z,129.38
2022-08-20T11:29:36.018Z,129.38
2022-08-20T11:30:36.021Z,129.38
2022-08-20T11:31:36.011Z,129.38
2022-08-20T11:32:35.977Z,129.38
2022-08-20T11:33:35.956Z,129.38
2022-08-20T11:34:35.944Z,129.38
2022-08-20T11:35:43.505Z,129.38
2022-08-20T11:36:37.132Z,129.38
2022-08-20T11:37:40.148Z,129.38
2022-08-20T11:38:35.895Z,129.38
2022-08-20T11:39:39.850Z,135.00
2022-08-20T11:40:36.875Z,135.00
2022-08-20T11:41:35.879Z,140.62
2022-08-20T11:42:44.501Z,140.62
2022-08-20T11:43:36.826Z,146.25
2022-08-20T11:44:35.909Z,146.25
2022-08-20T11:45:37.411Z,146.25
2022-08-20T11:46:35.788Z,146.25
2022-08-20T11:47:35.786Z,146.25
2022-08-20T11:48:35.768Z,146.25
2022-08-20T11:49:35.773Z,146.25
2022-08-20T11:50:35.768Z,146.25
2022-08-20T11:51:49.132Z,140.62
2022-08-20T11:52:36.727Z,140.62
2022-08-20T11:53:35.697Z,146.25
2022-08-20T11:54:35.679Z,140.62
2022-08-20T11:55:35.696Z,140.62
2022-08-20T11:56:35.675Z,135.00
2022-08-20T11:57:35.674Z,129.38
2022-08-20T11:58:35.628Z,129.38
2022-08-20T11:59:35.622Z,129.38
2022-08-20T12:00:35.619Z,129.38
2022-08-20T12:01:35.587Z,129.38
2022-08-20T12:02:35.626Z,129.38
2022-08-20T12:03:35.575Z,123.75
2022-08-20T12:04:35.546Z,123.75
2022-08-20T12:05:45.553Z,123.75
2022-08-20T12:06:35.524Z,123.75
2022-08-20T12:07:35.505Z,123.75
2022-08-20T12:08:35.505Z,123.75
2022-08-20T12:09:35.482Z,123.75
2022-08-20T12:10:35.506Z,123.75
2022-08-20T12:11:35.454Z,118.12
2022-08-20T12:12:35.466Z,118.12
2022-08-20T12:13:48.753Z,118.12
2022-08-20T12:14:36.418Z,118.12
2022-08-20T12:15:35.420Z,118.12
2022-08-20T12:16:35.397Z,118.12
2022-08-20T12:17:35.379Z,118.12
2022-08-20T12:18:35.367Z,118.12
2022-08-20T12:19:35.357Z,112.50
2022-08-20T12:20:35.356Z,112.50
2022-08-20T12:21:35.405Z,112.50
2022-08-20T12:22:35.316Z,112.50
2022-08-20T12:23:35.305Z,106.88
2022-08-20T12:24:35.325Z,106.88
2022-08-20T12:25:35.286Z,106.88
2022-08-20T12:26:35.271Z,106.88
2022-08-20T12:27:35.278Z,106.88
2022-08-20T12:28:35.256Z,101.25
2022-08-20T12:29:35.217Z,101.25
2022-08-20T12:30:35.229Z,101.25
2022-08-20T12:31:35.198Z,101.25
2022-08-20T12:32:35.186Z,101.25
2022-08-20T12:33:35.214Z,95.62
2022-08-20T12:34:35.156Z,95.62
2022-08-20T12:35:42.166Z,95.62
2022-08-20T12:36:35.125Z,95.62
2022-08-20T12:37:35.110Z,95.62
2022-08-20T12:38:35.097Z,95.62
2022-08-20T12:39:35.121Z,95.62
2022-08-20T12:40:35.088Z,95.62
2022-08-20T12:41:35.048Z,95.62
2022-08-20T12:42:35.053Z,95.62
2022-08-20T12:43:35.027Z,95.62
2022-08-20T12:44:35.027Z,101.25
2022-08-20T12:45:35.028Z,101.25
2022-08-20T12:46:34.988Z,101.25
2022-08-20T12:47:34.977Z,101.25
2022-08-20T12:48:34.985Z,101.25
2022-08-20T12:49:34.947Z,101.25
2022-08-20T12:50:34.948Z,95.62
2022-08-20T12:51:34.928Z,95.62
2022-08-20T12:52:34.919Z,95.62
2022-08-20T12:53:34.899Z,95.62
2022-08-20T12:54:34.931Z,95.62
2022-08-20T12:55:34.876Z,95.62
2022-08-20T12:56:34.858Z,95.62
2022-08-20T12:57:34.839Z,90.00
2022-08-20T12:58:34.868Z,90.00
2022-08-20T12:59:34.826Z,90.00
2022-08-20T13:00:34.856Z,90.00
2022-08-20T13:01:34.839Z,90.00